createdAt,value
2023-03-12T00:02:25.446Z,0.99
2023-03-12T00:04:53.271Z,0.99
2023-03-12T00:07:21.027Z,1.00
2023-03-12T00:09:48.768Z,1.05
2023-03-12T00:12:16.556Z,1.07
2023-03-12T00:14:44.354Z,1.12
2023-03-12T00:17:13.516Z,1.09
2023-03-12T00:19:41.355Z,1.10
2023-03-12T00:22:09.096Z,1.15
2023-03-12T00:24:36.866Z,1.14
2023-03-12T00:27:04.920Z,1.13
2023-03-12T00:29:32.690Z,1.13
2023-03-12T00:32:00.556Z,1.10
2023-03-12T00:34:29.736Z,1.08
2023-03-12T00:36:57.555Z,1.03
2023-03-12T00:39:25.308Z,1.07
2023-03-12T00:41:53.103Z,1.08
2023-03-12T00:44:21.128Z,1.07
2023-03-12T00:46:48.934Z,1.09
2023-03-12T00:49:17.091Z,1.11
2023-03-12T00:51:46.418Z,1.14
2023-03-12T00:54:14.297Z,1.16
2023-03-12T00:56:42.082Z,1.17
2023-03-12T00:59:09.911Z,1.19
2023-03-12T01:01:37.743Z,1.21
2023-03-12T01:04:06.267Z,1.21
2023-03-12T01:06:34.071Z,1.25
2023-03-12T01:09:05.287Z,1.25
2023-03-12T01:11:33.571Z,1.17
2023-03-12T01:14:02.606Z,1.13
2023-03-12T01:16:31.734Z,1.12
2023-03-12T01:19:00.900Z,1.12
2023-03-12T01:21:29.364Z,1.16
2023-03-12T01:23:58.182Z,1.16
2023-03-12T01:26:27.888Z,1.15
2023-03-12T01:28:56.306Z,1.12
2023-03-12T01:31:24.312Z,1.10
2023-03-12T01:33:53.832Z,1.13
2023-03-12T01:36:23.685Z,1.15
2023-03-12T01:38:52.407Z,1.17
2023-03-12T01:41:20.417Z,1.22
2023-03-12T01:43:51.038Z,1.25
2023-03-12T01:46:26.338Z,1.27
2023-03-12T01:48:59.090Z,1.27
2023-03-12T01:51:31.513Z,1.25
2023-03-12T01:54:01.983Z,1.24
2023-03-12T01:56:35.428Z,1.23
2023-03-12T01:59:10.724Z,1.23
2023-03-12T02:01:39.698Z,1.24
2023-03-12T02:04:08.134Z,1.26
2023-03-12T02:06:40.514Z,1.28
2023-03-12T02:09:09.153Z,1.29
2023-03-12T02:11:37.031Z,1.33
2023-03-12T02:14:06.426Z,1.37
2023-03-12T02:16:34.480Z,1.36
2023-03-12T02:19:05.678Z,1.35
2023-03-12T02:21:35.816Z,1.36
2023-03-12T02:24:09.301Z,1.38
2023-03-12T02:26:40.164Z,1.39
2023-03-12T02:29:10.024Z,1.39
2023-03-12T02:31:43.203Z,1.39
2023-03-12T02:34:11.635Z,1.39
2023-03-12T02:36:39.469Z,1.38
2023-03-12T02:39:07.504Z,1.41
2023-03-12T02:41:40.038Z,1.43
2023-03-12T02:44:12.400Z,1.44
2023-03-12T02:46:42.759Z,1.44
2023-03-12T02:49:13.274Z,1.46
2023-03-12T02:51:41.803Z,1.48
2023-03-12T02:54:10.334Z,1.50
2023-03-12T02:56:39.792Z,1.53
2023-03-12T02:59:08.496Z,1.55
2023-03-12T03:01:39.513Z,1.58
2023-03-12T03:04:09.673Z,1.60
2023-03-12T03:06:40.526Z,1.58
2023-03-12T03:09:08.621Z,1.55
2023-03-12T03:11:36.578Z,1.58
2023-03-12T03:14:07.942Z,1.58
2023-03-12T03:16:36.263Z,1.60
2023-03-12T03:19:04.083Z,1.59
2023-03-12T03:21:32.307Z,1.60
2023-03-12T03:24:00.381Z,1.60
2023-03-12T03:26:28.558Z,1.58
2023-03-12T03:28:56.418Z,1.60
2023-03-12T03:31:25.692Z,1.59
2023-03-12T03:33:53.893Z,1.59
2023-03-12T03:36:23.226Z,1.56
2023-03-12T03:38:59.325Z,1.55
2023-03-12T03:41:27.142Z,1.57
2023-03-12T03:43:58.327Z,1.58
2023-03-12T03:46:27.995Z,1.61
2023-03-12T03:49:01.832Z,1.62
2023-03-12T03:51:30.627Z,1.65
2023-03-12T03:54:02.884Z,1.65
2023-03-12T03:56:31.143Z,1.66
2023-03-12T03:59:01.933Z,1.68
2023-03-12T04:01:32.286Z,1.69
2023-03-12T04:04:01.782Z,1.69
2023-03-12T04:06:31.409Z,1.70
2023-03-12T04:08:59.870Z,1.69
2023-03-12T04:11:29.873Z,1.68
2023-03-12T04:13:59.527Z,1.68
2023-03-12T04:16:32.301Z,1.65
2023-03-12T04:19:00.656Z,1.65
2023-03-12T04:21:28.852Z,1.67
2023-03-12T04:23:56.905Z,1.72
2023-03-12T04:26:29.128Z,1.77
2023-03-12T04:28:58.004Z,1.82
2023-03-12T04:31:25.993Z,1.83
2023-03-12T04:33:55.301Z,1.86
2023-03-12T04:36:24.844Z,1.86
2023-03-12T04:38:54.445Z,1.85
2023-03-12T04:41:27.182Z,1.84
2023-03-12T04:44:01.822Z,1.82
2023-03-12T04:46:30.033Z,1.82
2023-03-12T04:49:02.967Z,1.81
2023-03-12T04:51:33.107Z,1.78
2023-03-12T04:54:03.173Z,1.73
2023-03-12T04:56:31.452Z,1.69
2023-03-12T04:58:59.624Z,1.67
2023-03-12T05:01:31.663Z,1.64
2023-03-12T05:03:59.600Z,1.61
2023-03-12T05:06:28.841Z,1.59
2023-03-12T05:08:57.663Z,1.58
2023-03-12T05:11:26.132Z,1.57
2023-03-12T05:13:54.146Z,1.58
2023-03-12T05:16:22.266Z,1.59
2023-03-12T05:18:50.305Z,1.60
2023-03-12T05:21:21.262Z,1.60
2023-03-12T05:23:53.711Z,1.62
2023-03-12T05:26:23.504Z,1.62
2023-03-12T05:28:53.886Z,1.60
2023-03-12T05:31:24.361Z,1.63
2023-03-12T05:33:52.971Z,1.63
2023-03-12T05:36:22.082Z,1.66
2023-03-12T05:38:50.368Z,1.67
2023-03-12T05:41:23.827Z,1.68
2023-03-12T05:43:55.047Z,1.69
2023-03-12T05:46:24.141Z,1.68
2023-03-12T05:48:52.386Z,1.69
2023-03-12T05:51:20.451Z,1.72
2023-03-12T05:53:48.325Z,1.75
2023-03-12T05:56:18.569Z,1.76
2023-03-12T05:58:49.744Z,1.77
2023-03-12T06:01:22.422Z,1.78
2023-03-12T06:03:50.707Z,1.82
2023-03-12T06:06:19.094Z,1.83
2023-03-12T06:08:47.725Z,1.85
2023-03-12T06:11:16.013Z,1.86
2023-03-12T06:13:44.265Z,1.86
2023-03-12T06:16:18.715Z,1.86
2023-03-12T06:18:46.723Z,1.83
2023-03-12T06:21:18.402Z,1.81
2023-03-12T06:23:47.860Z,1.83
2023-03-12T06:26:21.507Z,1.82
2023-03-12T06:28:51.090Z,1.81
2023-03-12T06:31:21.837Z,1.81
2023-03-12T06:33:50.271Z,1.79
2023-03-12T06:36:18.510Z,1.77
2023-03-12T06:38:46.530Z,1.76
2023-03-12T06:41:16.477Z,1.77
2023-03-12T06:43:45.418Z,1.71
2023-03-12T06:46:16.639Z,1.69
2023-03-12T06:48:46.625Z,1.67
2023-03-12T06:51:16.840Z,1.64
2023-03-12T06:53:44.949Z,1.62
2023-03-12T06:56:13.372Z,1.58
2023-03-12T06:58:41.547Z,1.52
2023-03-12T07:01:09.844Z,1.45
2023-03-12T07:03:37.706Z,1.41
2023-03-12T07:06:14.738Z,1.41
2023-03-12T07:08:43.019Z,1.40
2023-03-12T07:11:11.193Z,1.39
2023-03-12T07:13:39.062Z,1.39
2023-03-12T07:16:07.979Z,1.39
2023-03-12T07:18:36.031Z,1.41
2023-03-12T07:21:04.978Z,1.44
2023-03-12T07:23:34.130Z,1.46
2023-03-12T07:26:01.887Z,1.46
2023-03-12T07:28:29.731Z,1.47
2023-03-12T07:31:01.584Z,1.52
2023-03-12T07:33:29.644Z,1.54
2023-03-12T07:35:57.698Z,1.56
2023-03-12T07:38:26.106Z,1.57
2023-03-12T07:40:56.971Z,1.63
2023-03-12T07:43:25.589Z,1.67
2023-03-12T07:45:55.327Z,1.69
2023-03-12T07:48:23.329Z,1.73
2023-03-12T07:50:51.252Z,1.74
2023-03-12T07:53:19.300Z,1.77
2023-03-12T07:55:48.756Z,1.81
2023-03-12T07:58:18.693Z,1.85
2023-03-12T08:00:46.725Z,1.88
2023-03-12T08:03:15.039Z,1.92
2023-03-12T08:05:42.984Z,1.95
2023-03-12T08:08:11.127Z,1.97
2023-03-12T08:10:39.067Z,2.01
2023-03-12T08:13:07.018Z,2.02
2023-03-12T08:15:36.172Z,2.05
2023-03-12T08:18:03.937Z,2.09
2023-03-12T08:20:32.004Z,2.11
2023-03-12T08:22:59.890Z,2.15
2023-03-12T08:25:28.482Z,2.21
2023-03-12T08:27:56.262Z,2.22
2023-03-12T08:30:24.091Z,2.25
2023-03-12T08:32:53.297Z,2.30
2023-03-12T08:35:21.141Z,2.33
2023-03-12T08:37:49.010Z,2.38
2023-03-12T08:40:17.179Z,2.43
2023-03-12T08:42:45.989Z,2.50
2023-03-12T08:45:15.751Z,2.55
2023-03-12T08:47:53.804Z,2.59
2023-03-12T08:50:22.913Z,2.64
2023-03-12T08:52:51.115Z,2.69
2023-03-12T08:55:19.032Z,2.72
2023-03-12T08:57:46.819Z,2.77
2023-03-12T09:00:16.263Z,2.83
2023-03-12T09:02:45.418Z,2.90
2023-03-12T09:05:15.103Z,2.98
2023-03-12T09:07:42.915Z,3.06
2023-03-12T09:10:11.657Z,3.13
2023-03-12T09:12:39.423Z,3.19
2023-03-12T09:15:08.679Z,3.27
2023-03-12T09:17:36.442Z,3.38
2023-03-12T09:20:06.993Z,3.52
2023-03-12T09:22:37.100Z,3.61
2023-03-12T09:25:05.590Z,3.70
2023-03-12T09:27:37.236Z,3.76
2023-03-12T09:30:06.625Z,3.83
2023-03-12T09:32:34.515Z,3.88
2023-03-12T09:35:02.347Z,3.97
2023-03-12T09:37:32.216Z,4.08
2023-03-12T09:40:01.796Z,4.18
2023-03-12T09:42:38.972Z,4.26
2023-03-12T09:45:10.497Z,4.37
2023-03-12T09:47:47.660Z,4.47
2023-03-12T09:50:23.812Z,4.55
2023-03-12T09:52:58.762Z,4.65
2023-03-12T09:55:32.572Z,4.75
2023-03-12T09:58:00.414Z,4.86
2023-03-12T10:00:32.315Z,4.92
2023-03-12T10:03:10.584Z,4.96
2023-03-12T10:05:45.262Z,5.03
2023-03-12T10:08:30.668Z,5.13
2023-03-12T10:11:09.529Z,5.21
2023-03-12T10:13:48.914Z,5.31
2023-03-12T10:16:28.004Z,5.37
2023-03-12T10:19:10.422Z,5.44
2023-03-12T10:21:51.840Z,5.51
2023-03-12T10:24:31.565Z,5.60
2023-03-12T10:27:01.802Z,5.67
2023-03-12T10:29:31.897Z,5.71
2023-03-12T10:32:03.478Z,5.76
2023-03-12T10:34:37.552Z,5.82
2023-03-12T10:37:13.560Z,5.88
2023-03-12T10:39:41.451Z,5.92
2023-03-12T10:42:17.951Z,6.00
2023-03-12T10:44:47.843Z,6.10
2023-03-12T10:47:30.060Z,6.19
2023-03-12T10:50:13.779Z,6.31
2023-03-12T10:52:42.350Z,6.37
2023-03-12T10:55:17.598Z,6.47
2023-03-12T10:57:46.741Z,6.62
2023-03-12T11:00:21.989Z,6.79
2023-03-12T11:02:58.801Z,6.92
2023-03-12T11:05:29.399Z,7.04
2023-03-12T11:07:59.677Z,7.14
2023-03-12T11:10:38.868Z,7.28
2023-03-12T11:13:23.678Z,7.40
2023-03-12T11:15:52.873Z,7.50
2023-03-12T11:18:29.722Z,7.57
2023-03-12T11:21:12.650Z,7.66
2023-03-12T11:23:43.117Z,7.75
2023-03-12T11:26:17.003Z,7.81
2023-03-12T11:28:49.070Z,7.87
2023-03-12T11:31:23.667Z,7.95
2023-03-12T11:33:55.448Z,7.99
2023-03-12T11:36:41.170Z,8.03
2023-03-12T11:39:22.048Z,8.06
2023-03-12T11:42:08.132Z,8.07
2023-03-12T11:44:46.024Z,8.11
2023-03-12T11:47:32.044Z,8.13
2023-03-12T11:50:14.251Z,8.12
2023-03-12T11:52:58.438Z,8.15
2023-03-12T11:55:48.394Z,8.17
2023-03-12T11:58:35.316Z,8.18
2023-03-12T12:01:11.050Z,8.21
2023-03-12T12:03:54.611Z,8.24
2023-03-12T12:06:34.115Z,8.30
2023-03-12T12:09:12.961Z,8.33
2023-03-12T12:11:53.113Z,8.33
2023-03-12T12:14:33.788Z,8.37
2023-03-12T12:17:14.292Z,8.41
2023-03-12T12:19:59.130Z,8.44
2023-03-12T12:22:35.844Z,8.45
2023-03-12T12:25:34.339Z,8.47
2023-03-12T12:28:43.965Z,8.51
2023-03-12T12:31:32.672Z,8.60
2023-03-12T12:34:17.627Z,8.66
2023-03-12T12:36:50.123Z,8.74
2023-03-12T12:39:25.183Z,8.81
2023-03-12T12:41:56.510Z,8.88
2023-03-12T12:44:28.961Z,8.98
2023-03-12T12:47:02.418Z,9.02
2023-03-12T12:49:42.114Z,9.05
2023-03-12T12:52:13.964Z,9.09
2023-03-12T12:54:56.635Z,9.11
2023-03-12T12:57:29.143Z,9.13
2023-03-12T13:00:15.596Z,9.17
2023-03-12T13:02:47.890Z,9.23
2023-03-12T13:05:22.847Z,9.26
2023-03-12T13:07:50.603Z,9.30
2023-03-12T13:10:48.621Z,9.28
2023-03-12T13:13:27.228Z,9.32
2023-03-12T13:16:28.154Z,9.38
2023-03-12T13:19:00.514Z,9.39
2023-03-12T13:21:39.249Z,9.39
2023-03-12T13:24:18.818Z,9.40
2023-03-12T13:26:57.272Z,9.42
2023-03-12T13:29:39.647Z,9.45
2023-03-12T13:32:30.377Z,9.46
2023-03-12T13:34:58.868Z,9.49
2023-03-12T13:38:01.425Z,9.50
2023-03-12T13:40:50.197Z,9.51
2023-03-12T13:43:42.171Z,9.50
2023-03-12T13:46:28.480Z,9.56
2023-03-12T13:49:00.934Z,9.65
2023-03-12T13:51:29.314Z,9.75
2023-03-12T13:54:01.510Z,9.90
2023-03-12T13:56:31.792Z,9.98
2023-03-12T13:59:02.688Z,10.08
2023-03-12T14:01:33.067Z,10.25
2023-03-12T14:04:04.956Z,10.42
2023-03-12T14:06:50.008Z,10.53
2023-03-12T14:09:28.290Z,10.75
2023-03-12T14:12:07.458Z,11.04
2023-03-12T14:15:01.976Z,11.51
2023-03-12T14:17:32.477Z,11.78
2023-03-12T14:20:05.550Z,12.01
2023-03-12T14:22:36.154Z,12.14
2023-03-12T14:25:14.000Z,12.18
2023-03-12T14:27:42.234Z,12.10
2023-03-12T14:30:17.133Z,12.10
2023-03-12T14:32:48.125Z,11.99
2023-03-12T14:35:20.050Z,11.90
2023-03-12T14:37:56.771Z,11.76
2023-03-12T14:40:36.605Z,11.69
2023-03-12T14:43:04.423Z,11.57
2023-03-12T14:45:32.215Z,11.57
2023-03-12T14:48:00.269Z,11.56
2023-03-12T14:50:30.316Z,11.59
2023-03-12T14:53:14.195Z,11.64
2023-03-12T14:55:43.306Z,11.65
2023-03-12T14:58:18.025Z,11.64
2023-03-12T15:00:46.896Z,11.61
2023-03-12T15:03:17.475Z,11.50
2023-03-12T15:05:47.891Z,11.50
2023-03-12T15:08:16.469Z,11.53
2023-03-12T15:10:51.145Z,11.32
2023-03-12T15:13:20.716Z,11.22
2023-03-12T15:15:51.088Z,11.15
2023-03-12T15:18:21.707Z,11.05
2023-03-12T15:20:50.731Z,10.95
2023-03-12T15:23:19.941Z,10.91
2023-03-12T15:25:49.255Z,10.87
2023-03-12T15:28:29.913Z,10.81
2023-03-12T15:31:11.730Z,10.75
2023-03-12T15:33:40.089Z,10.77
2023-03-12T15:36:24.120Z,10.75
2023-03-12T15:38:54.961Z,10.76
2023-03-12T15:41:27.910Z,10.79
2023-03-12T15:43:58.115Z,10.79
2023-03-12T15:46:27.249Z,10.81
2023-03-12T15:48:57.756Z,10.80
2023-03-12T15:51:35.100Z,10.75
2023-03-12T15:54:06.659Z,10.69
2023-03-12T15:56:37.204Z,10.66
2023-03-12T15:59:21.032Z,10.56
2023-03-12T16:01:50.648Z,10.51
2023-03-12T16:04:18.724Z,10.47
2023-03-12T16:06:48.857Z,10.44
2023-03-12T16:09:19.899Z,10.41
2023-03-12T16:11:49.604Z,10.42
2023-03-12T16:14:20.071Z,10.37
2023-03-12T16:16:48.514Z,10.35
2023-03-12T16:19:18.826Z,10.34
2023-03-12T16:21:46.682Z,10.32
2023-03-12T16:24:16.388Z,10.30
2023-03-12T16:26:50.712Z,10.31
2023-03-12T16:29:20.304Z,10.27
2023-03-12T16:31:52.249Z,10.27
2023-03-12T16:34:20.122Z,10.22
2023-03-12T16:36:47.927Z,10.20
2023-03-12T16:39:18.409Z,10.15
2023-03-12T16:41:46.695Z,10.13
2023-03-12T16:44:22.342Z,10.10
2023-03-12T16:46:50.559Z,10.06
2023-03-12T16:49:23.335Z,10.01
2023-03-12T16:51:51.235Z,9.99
2023-03-12T16:54:21.161Z,9.96
2023-03-12T16:56:50.856Z,9.93
2023-03-12T16:59:25.630Z,9.90
2023-03-12T17:01:55.938Z,9.88
2023-03-12T17:07:07.008Z,9.83
2023-03-12T17:09:35.141Z,9.80
2023-03-12T17:12:04.314Z,9.80
2023-03-12T17:14:33.534Z,9.79
2023-03-12T17:17:01.292Z,9.76
2023-03-12T17:19:29.112Z,9.74
2023-03-12T17:21:57.520Z,9.69
2023-03-12T17:24:27.981Z,9.66
2023-03-12T17:26:56.971Z,9.65
2023-03-12T17:29:24.959Z,9.64
2023-03-12T17:31:54.081Z,9.60
2023-03-12T17:34:21.891Z,9.57
2023-03-12T17:36:49.690Z,9.56
2023-03-12T17:39:17.458Z,9.54
2023-03-12T17:41:45.491Z,9.50
2023-03-12T17:44:14.820Z,9.49
2023-03-12T17:46:56.610Z,9.45
2023-03-12T17:49:28.258Z,9.43
2023-03-12T17:51:56.229Z,9.43
2023-03-12T17:54:24.076Z,9.42
2023-03-12T17:56:51.857Z,9.41
2023-03-12T17:59:19.685Z,9.39
2023-03-12T18:01:47.523Z,9.38
2023-03-12T18:04:15.709Z,9.37
2023-03-12T18:06:44.935Z,9.37
2023-03-12T18:09:12.698Z,9.37
2023-03-12T18:11:40.475Z,9.37
2023-03-12T18:14:08.331Z,9.33
2023-03-12T18:16:36.205Z,9.30
2023-03-12T18:19:04.132Z,9.33
2023-03-12T18:21:31.925Z,9.33
2023-03-12T18:24:11.793Z,9.32
2023-03-12T18:26:41.636Z,9.33
2023-03-12T18:29:09.416Z,9.34
2023-03-12T18:31:37.351Z,9.34
2023-03-12T18:34:05.312Z,9.36
2023-03-12T18:36:33.130Z,9.36
2023-03-12T18:39:04.478Z,9.36
2023-03-12T18:41:32.983Z,9.37
2023-03-12T18:44:01.160Z,9.36
2023-03-12T18:46:29.319Z,9.36
2023-03-12T18:48:57.192Z,9.38
2023-03-12T18:51:24.985Z,9.38
2023-03-12T18:53:52.792Z,9.39
2023-03-12T18:56:21.916Z,9.37
2023-03-12T18:58:49.675Z,9.37
2023-03-12T19:01:17.728Z,9.36
2023-03-12T19:03:45.588Z,9.35
2023-03-12T19:06:15.799Z,9.34
2023-03-12T19:08:44.081Z,9.30
2023-03-12T19:11:13.679Z,9.25
2023-03-12T19:13:43.881Z,9.23
2023-03-12T19:16:16.081Z,9.25
2023-03-12T19:18:43.968Z,9.25
2023-03-12T19:21:11.798Z,9.26
2023-03-12T19:23:39.639Z,9.28
2023-03-12T19:26:08.415Z,9.26
2023-03-12T19:28:37.334Z,9.25
2023-03-12T19:31:08.169Z,9.28
2023-03-12T19:33:36.546Z,9.29
2023-03-12T19:36:05.130Z,9.29
2023-03-12T19:38:33.016Z,9.30
2023-03-12T19:41:01.138Z,9.32
2023-03-12T19:43:29.055Z,9.32
2023-03-12T19:45:56.896Z,9.30
2023-03-12T19:48:26.288Z,9.32
2023-03-12T19:50:55.936Z,9.34
2023-03-12T19:53:24.712Z,9.37
2023-03-12T19:55:53.032Z,9.35
2023-03-12T19:58:20.853Z,9.36
2023-03-12T20:00:49.407Z,9.33
2023-03-12T20:03:17.317Z,9.33
2023-03-12T20:05:46.908Z,9.29
2023-03-12T20:08:14.738Z,9.26
2023-03-12T20:10:42.556Z,9.24
2023-03-12T20:13:12.931Z,9.22
2023-03-12T20:15:40.825Z,9.21
2023-03-12T20:18:08.630Z,9.17
2023-03-12T20:20:36.371Z,9.16
2023-03-12T20:23:05.547Z,9.16
2023-03-12T20:25:33.394Z,9.16
2023-03-12T20:28:01.283Z,9.13
2023-03-12T20:30:29.116Z,9.12
2023-03-12T20:32:56.974Z,9.11
2023-03-12T20:35:24.792Z,9.08
2023-03-12T20:37:52.642Z,9.06
2023-03-12T20:40:21.976Z,9.05
2023-03-12T20:42:50.846Z,9.06
2023-03-12T20:45:18.840Z,9.07
2023-03-12T20:47:46.732Z,9.07
2023-03-12T20:50:14.649Z,9.06
2023-03-12T20:52:43.979Z,9.05
2023-03-12T20:55:11.809Z,9.06
2023-03-12T20:57:40.943Z,9.06
2023-03-12T21:00:10.090Z,9.06
2023-03-12T21:02:38.064Z,9.05
2023-03-12T21:05:06.273Z,9.08
2023-03-12T21:07:34.099Z,9.09
2023-03-12T21:10:01.911Z,9.10
2023-03-12T21:12:29.658Z,9.13
2023-03-12T21:15:06.028Z,9.14
2023-03-12T21:17:34.716Z,9.12
2023-03-12T21:20:03.273Z,9.11
2023-03-12T21:22:32.486Z,9.11
2023-03-12T21:25:00.299Z,9.12
2023-03-12T21:27:29.446Z,9.12
2023-03-12T21:30:00.860Z,9.11
2023-03-12T21:32:28.976Z,9.09
2023-03-12T21:34:56.734Z,9.08
2023-03-12T21:37:25.690Z,9.08
2023-03-12T21:39:53.545Z,9.07
2023-03-12T21:42:24.358Z,9.07
2023-03-12T21:44:52.304Z,9.06
2023-03-12T21:47:21.508Z,9.04
2023-03-12T21:49:49.395Z,9.03
2023-03-12T21:52:17.181Z,8.99
2023-03-12T21:54:44.953Z,8.99
2023-03-12T21:57:12.916Z,8.97
2023-03-12T21:59:40.706Z,8.93
2023-03-12T22:02:11.976Z,8.90
2023-03-12T22:04:41.376Z,8.90
2023-03-12T22:07:09.157Z,8.86
2023-03-12T22:09:36.968Z,8.85
2023-03-12T22:12:05.365Z,8.83
2023-03-12T22:14:33.172Z,8.81
2023-03-12T22:17:00.912Z,8.80
2023-03-12T22:19:28.720Z,8.80
2023-03-12T22:21:57.844Z,8.79
2023-03-12T22:24:25.645Z,8.80
2023-03-12T22:26:53.423Z,8.80
2023-03-12T22:29:21.267Z,8.78
2023-03-12T22:31:49.869Z,8.77
2023-03-12T22:34:17.663Z,8.78
2023-03-12T22:36:45.507Z,8.78
2023-03-12T22:39:14.713Z,8.80
2023-03-12T22:41:42.520Z,8.78
2023-03-12T22:44:10.540Z,8.76
2023-03-12T22:46:38.369Z,8.75
2023-03-12T22:49:06.202Z,8.72
2023-03-12T22:51:34.675Z,8.70
2023-03-12T22:54:02.506Z,8.72
2023-03-12T22:56:31.718Z,8.68
2023-03-12T22:58:59.557Z,8.66
2023-03-12T23:01:27.778Z,8.64
2023-03-12T23:03:55.603Z,8.62
2023-03-12T23:06:25.321Z,8.62
2023-03-12T23:08:54.793Z,8.60
2023-03-12T23:11:25.310Z,8.59
2023-03-12T23:13:55.105Z,8.62
2023-03-12T23:16:24.754Z,8.60
2023-03-12T23:18:52.700Z,8.57
2023-03-12T23:21:22.319Z,8.56
2023-03-12T23:23:51.331Z,8.53
2023-03-12T23:26:21.772Z,8.50
2023-03-12T23:28:51.813Z,8.47
2023-03-12T23:31:21.613Z,8.44
2023-03-12T23:33:49.576Z,8.40
2023-03-12T23:36:19.437Z,8.38
2023-03-12T23:38:48.285Z,8.38
2023-03-12T23:41:17.991Z,8.36
2023-03-12T23:43:46.575Z,8.35
2023-03-12T23:46:16.899Z,8.34
2023-03-12T23:48:47.005Z,8.33
2023-03-12T23:51:16.910Z,8.34
2023-03-12T23:53:47.191Z,8.35
2023-03-12T23:56:18.391Z,8.33
2023-03-12T23:58:46.917Z,8.34
